Αρχική σελίδα
METAR-TAF:

METAR-TAF

Αεροδρόμια :

Kugluktuk, Νούναβουτ, Καναδάς

γεωγραφικό πλάτος: 67-49N, γεωγραφικό μήκος: 115-08W, υψόμετρο: 22 μ

Παρών καιρός

Η αναφορά έγινε 53 λεπτά πριν, στις 13:00 UTC
Άνεμος 8 kt από Ν/ΝΔ
Θερμοκρασία -33°C
Υγρασία 74%
Πίεση 1034 hPa
Ορατότητα: 24.1 χλμ
Καθαρός ουρανός

METAR: CYCO 101300Z 21008KT 15SM SKC M33/M36 A3053 RMK SLP343

Χρόνος: 06:53 (13:53 UTC)

Πρόγνωση Καιρού

Η αναφορά έγινε 1 ώρα και 15 λεπτά πριν, στις 12:38 UTC
Η πρόγνωση ισχύει από τις 10 στις 13 UTC έως τις 11 στις 01 UTC
Άνεμος 3 kt από μεταβλητές κατευθύνσεις
Ορατότητα: 10 χλμ
Καθαρός ουρανός
Καθιστάμενος
από 10 στις 14 UTC έως τις 10 στις 16 UTC
Άνεμος 10 kt από ΝΔ

TAF: CYCO 101238Z 1013/1101 VRB03KT P6SM SKC BECMG 1014/1016 22010KT RMK NXT FCST BY 101900Z

Μετεωρολογικές αναφορές και προγνώσεις για περισσότερα από 4000 αεροδρόμια (δελτία METAR και TAF).

Οι διαθέσιμοι σταθμοί απεικονίζονται στο χάρτη με κίτρινες και κόκκινες κουκκίδες.

Μετακινήστε το ποντίκι πάνω από τις κουκκίδες για να δείτε το όνομα του σταθμού.

Στη συνέχεια, κάντε κλικ για να δείτε τις μετεωρολογικές αναφορές και τις προγνώσεις καιρού.

Για να αλλάξετε το χάρτη: κάντε κλικ στα πράσινα κουμπιά με τον μαύρο σταυρό για να ζουμάρετε, στο πράσινο κουμπί με την παύλα για να αφαιρέσετε το ζουμ ή στα πράσινα βέλη για να αντιπαραβάλλετε χάρτες.


METAR-TAF: